sensor_id;sensor_type;location;lat;lon;timestamp;temperature;humidity
7307;DHT22;3694;48.732;9.248;2023-08-08T00:01:50;10.80;99.90
7307;DHT22;3694;48.732;9.248;2023-08-08T00:04:15;10.80;99.90
7307;DHT22;3694;48.732;9.248;2023-08-08T00:06:41;10.80;99.90
7307;DHT22;3694;48.732;9.248;2023-08-08T00:09:06;10.80;99.90
7307;DHT22;3694;48.732;9.248;2023-08-08T00:11:32;10.80;99.90
7307;DHT22;3694;48.732;9.248;2023-08-08T00:17:26;10.90;99.90
7307;DHT22;3694;48.732;9.248;2023-08-08T00:19:51;11.00;99.90
7307;DHT22;3694;48.732;9.248;2023-08-08T00:22:17;11.10;99.90
7307;DHT22;3694;48.732;9.248;2023-08-08T00:24:59;11.20;99.90
7307;DHT22;3694;48.732;9.248;2023-08-08T00:27:24;11.30;99.90
7307;DHT22;3694;48.732;9.248;2023-08-08T00:29:50;11.30;99.90
7307;DHT22;3694;48.732;9.248;2023-08-08T00:32:16;11.40;99.90
7307;DHT22;3694;48.732;9.248;2023-08-08T00:34:41;11.40;99.90
7307;DHT22;3694;48.732;9.248;2023-08-08T00:37:07;11.40;99.90
7307;DHT22;3694;48.732;9.248;2023-08-08T00:39:32;11.40;99.90
7307;DHT22;3694;48.732;9.248;2023-08-08T00:41:58;11.50;99.90
7307;DHT22;3694;48.732;9.248;2023-08-08T00:44:24;11.50;99.90
7307;DHT22;3694;48.732;9.248;2023-08-08T00:46:49;11.50;99.90
7307;DHT22;3694;48.732;9.248;2023-08-08T00:49:15;11.50;99.90
7307;DHT22;3694;48.732;9.248;2023-08-08T00:51:40;11.70;99.90
7307;DHT22;3694;48.732;9.248;2023-08-08T00:54:06;11.60;99.90
7307;DHT22;3694;48.732;9.248;2023-08-08T00:56:33;11.70;99.90
7307;DHT22;3694;48.732;9.248;2023-08-08T00:58:58;11.70;99.90
7307;DHT22;3694;48.732;9.248;2023-08-08T01:01:24;11.70;99.90
7307;DHT22;3694;48.732;9.248;2023-08-08T01:03:50;11.80;99.90
7307;DHT22;3694;48.732;9.248;2023-08-08T01:06:37;11.70;99.90
7307;DHT22;3694;48.732;9.248;2023-08-08T01:11:47;11.60;99.90
7307;DHT22;3694;48.732;9.248;2023-08-08T01:14:15;11.50;99.90
7307;DHT22;3694;48.732;9.248;2023-08-08T01:16:42;11.50;99.90
7307;DHT22;3694;48.732;9.248;2023-08-08T01:19:13;11.40;99.90
7307;DHT22;3694;48.732;9.248;2023-08-08T01:21:41;11.40;99.90
7307;DHT22;3694;48.732;9.248;2023-08-08T01:24:14;11.40;99.90
7307;DHT22;3694;48.732;9.248;2023-08-08T01:26:40;11.40;99.90
7307;DHT22;3694;48.732;9.248;2023-08-08T01:29:06;11.30;99.90
7307;DHT22;3694;48.732;9.248;2023-08-08T01:31:32;11.30;99.90
7307;DHT22;3694;48.732;9.248;2023-08-08T01:33:57;11.30;99.90
7307;DHT22;3694;48.732;9.248;2023-08-08T01:36:29;11.30;99.90
7307;DHT22;3694;48.732;9.248;2023-08-08T01:38:59;11.40;99.90
7307;DHT22;3694;48.732;9.248;2023-08-08T01:41:32;11.40;99.90
7307;DHT22;3694;48.732;9.248;2023-08-08T01:43:58;11.30;99.90
7307;DHT22;3694;48.732;9.248;2023-08-08T01:46:24;11.30;99.90
7307;DHT22;3694;48.732;9.248;2023-08-08T01:48:50;11.30;99.90
7307;DHT22;3694;48.732;9.248;2023-08-08T01:51:16;11.20;99.90
7307;DHT22;3694;48.732;9.248;2023-08-08T01:53:41;11.20;99.90
7307;DHT22;3694;48.732;9.248;2023-08-08T01:56:07;11.20;99.90
7307;DHT22;3694;48.732;9.248;2023-08-08T01:58:33;11.20;99.90
7307;DHT22;3694;48.732;9.248;2023-08-08T02:00:59;11.30;99.90
7307;DHT22;3694;48.732;9.248;2023-08-08T02:03:24;11.40;99.90
7307;DHT22;3694;48.732;9.248;2023-08-08T02:05:50;11.60;99.90
7307;DHT22;3694;48.732;9.248;2023-08-08T02:08:15;11.70;99.90
7307;DHT22;3694;48.732;9.248;2023-08-08T02:10:42;11.70;99.90
7307;DHT22;3694;48.732;9.248;2023-08-08T02:13:07;12.00;99.90
7307;DHT22;3694;48.732;9.248;2023-08-08T02:15:33;11.90;99.90
7307;DHT22;3694;48.732;9.248;2023-08-08T02:17:59;11.90;99.90
7307;DHT22;3694;48.732;9.248;2023-08-08T02:20:25;12.00;99.90
7307;DHT22;3694;48.732;9.248;2023-08-08T02:22:50;12.00;99.90
7307;DHT22;3694;48.732;9.248;2023-08-08T02:25:16;12.00;99.90
7307;DHT22;3694;48.732;9.248;2023-08-08T02:27:41;12.00;99.90
7307;DHT22;3694;48.732;9.248;2023-08-08T02:30:07;12.00;99.90
7307;DHT22;3694;48.732;9.248;2023-08-08T02:32:33;12.10;99.90
7307;DHT22;3694;48.732;9.248;2023-08-08T02:34:58;12.00;99.90
7307;DHT22;3694;48.732;9.248;2023-08-08T02:37:24;12.00;99.90
7307;DHT22;3694;48.732;9.248;2023-08-08T02:39:50;12.00;99.90
7307;DHT22;3694;48.732;9.248;2023-08-08T02:42:15;11.90;99.90
7307;DHT22;3694;48.732;9.248;2023-08-08T02:44:41;11.90;99.90
7307;DHT22;3694;48.732;9.248;2023-08-08T02:47:06;11.80;99.90
7307;DHT22;3694;48.732;9.248;2023-08-08T02:49:32;11.70;99.90
7307;DHT22;3694;48.732;9.248;2023-08-08T02:51:59;11.70;99.90
7307;DHT22;3694;48.732;9.248;2023-08-08T02:54:25;11.70;99.90
7307;DHT22;3694;48.732;9.248;2023-08-08T02:56:50;11.70;99.90
7307;DHT22;3694;48.732;9.248;2023-08-08T02:59:16;11.70;99.90
7307;DHT22;3694;48.732;9.248;2023-08-08T03:01:42;11.70;99.90
7307;DHT22;3694;48.732;9.248;2023-08-08T03:04:07;11.70;99.90
7307;DHT22;3694;48.732;9.248;2023-08-08T03:06:33;11.80;99.90
7307;DHT22;3694;48.732;9.248;2023-08-08T03:08:58;11.70;99.90
7307;DHT22;3694;48.732;9.248;2023-08-08T03:11:24;11.60;99.90
7307;DHT22;3694;48.732;9.248;2023-08-08T03:13:49;11.60;99.90
7307;DHT22;3694;48.732;9.248;2023-08-08T03:16:15;11.60;99.90
7307;DHT22;3694;48.732;9.248;2023-08-08T03:18:41;11.50;99.90
7307;DHT22;3694;48.732;9.248;2023-08-08T03:21:06;11.50;99.90
7307;DHT22;3694;48.732;9.248;2023-08-08T03:23:32;11.50;99.90
7307;DHT22;3694;48.732;9.248;2023-08-08T03:25:57;11.40;99.90
7307;DHT22;3694;48.732;9.248;2023-08-08T03:28:23;11.40;99.90
7307;DHT22;3694;48.732;9.248;2023-08-08T03:30:49;11.40;99.90
7307;DHT22;3694;48.732;9.248;2023-08-08T03:33:14;11.30;99.90
7307;DHT22;3694;48.732;9.248;2023-08-08T03:35:40;11.20;99.90
7307;DHT22;3694;48.732;9.248;2023-08-08T03:38:05;11.20;99.90
7307;DHT22;3694;48.732;9.248;2023-08-08T03:40:31;11.20;99.90
7307;DHT22;3694;48.732;9.248;2023-08-08T03:42:57;11.20;99.90
7307;DHT22;3694;48.732;9.248;2023-08-08T03:45:22;11.20;99.90
7307;DHT22;3694;48.732;9.248;2023-08-08T03:47:48;11.30;99.90
7307;DHT22;3694;48.732;9.248;2023-08-08T03:50:13;11.30;99.90
7307;DHT22;3694;48.732;9.248;2023-08-08T03:52:39;11.40;99.90
7307;DHT22;3694;48.732;9.248;2023-08-08T03:55:05;11.40;99.90
7307;DHT22;3694;48.732;9.248;2023-08-08T03:57:31;11.50;99.90
7307;DHT22;3694;48.732;9.248;2023-08-08T03:59:56;11.60;99.90
7307;DHT22;3694;48.732;9.248;2023-08-08T04:02:22;11.70;99.90
7307;DHT22;3694;48.732;9.248;2023-08-08T04:04:47;11.70;99.90
7307;DHT22;3694;48.732;9.248;2023-08-08T04:07:13;11.90;99.90
7307;DHT22;3694;48.732;9.248;2023-08-08T04:09:39;11.90;99.90
7307;DHT22;3694;48.732;9.248;2023-08-08T04:12:04;11.90;99.90
7307;DHT22;3694;48.732;9.248;2023-08-08T04:14:30;12.00;99.90
7307;DHT22;3694;48.732;9.248;2023-08-08T04:16:55;12.00;99.90
7307;DHT22;3694;48.732;9.248;2023-08-08T04:19:21;12.10;99.90
7307;DHT22;3694;48.732;9.248;2023-08-08T04:21:46;12.20;99.90
7307;DHT22;3694;48.732;9.248;2023-08-08T04:24:12;12.20;99.90
7307;DHT22;3694;48.732;9.248;2023-08-08T04:26:38;12.30;99.90
7307;DHT22;3694;48.732;9.248;2023-08-08T04:29:04;12.30;99.90
7307;DHT22;3694;48.732;9.248;2023-08-08T04:31:30;12.40;99.90
7307;DHT22;3694;48.732;9.248;2023-08-08T04:33:55;12.40;99.90
7307;DHT22;3694;48.732;9.248;2023-08-08T04:36:26;12.40;99.90
7307;DHT22;3694;48.732;9.248;2023-08-08T04:38:51;12.40;99.90
7307;DHT22;3694;48.732;9.248;2023-08-08T04:41:17;12.40;99.90
7307;DHT22;3694;48.732;9.248;2023-08-08T04:43:42;12.50;99.90
7307;DHT22;3694;48.732;9.248;2023-08-08T04:46:08;12.50;99.90
7307;DHT22;3694;48.732;9.248;2023-08-08T04:48:35;12.50;99.90
7307;DHT22;3694;48.732;9.248;2023-08-08T04:51:00;12.50;99.90
7307;DHT22;3694;48.732;9.248;2023-08-08T04:53:26;12.50;99.90
7307;DHT22;3694;48.732;9.248;2023-08-08T04:55:51;12.50;99.90
7307;DHT22;3694;48.732;9.248;2023-08-08T04:58:18;12.50;99.90
7307;DHT22;3694;48.732;9.248;2023-08-08T05:00:44;12.70;99.90
7307;DHT22;3694;48.732;9.248;2023-08-08T05:03:10;12.60;99.90
7307;DHT22;3694;48.732;9.248;2023-08-08T05:05:35;12.70;99.90
7307;DHT22;3694;48.732;9.248;2023-08-08T05:08:00;12.80;99.90
7307;DHT22;3694;48.732;9.248;2023-08-08T05:10:26;12.80;99.90
7307;DHT22;3694;48.732;9.248;2023-08-08T05:12:51;12.80;99.90
7307;DHT22;3694;48.732;9.248;2023-08-08T05:15:17;12.70;99.90
7307;DHT22;3694;48.732;9.248;2023-08-08T05:17:43;12.80;99.90
7307;DHT22;3694;48.732;9.248;2023-08-08T05:20:09;12.90;99.90
7307;DHT22;3694;48.732;9.248;2023-08-08T05:22:35;13.00;99.90
7307;DHT22;3694;48.732;9.248;2023-08-08T05:25:01;13.20;99.90
7307;DHT22;3694;48.732;9.248;2023-08-08T05:27:26;13.30;99.90
7307;DHT22;3694;48.732;9.248;2023-08-08T05:29:52;13.40;99.90
7307;DHT22;3694;48.732;9.248;2023-08-08T05:32:17;13.50;99.90
7307;DHT22;3694;48.732;9.248;2023-08-08T05:34:43;13.60;99.90
7307;DHT22;3694;48.732;9.248;2023-08-08T05:37:08;13.50;99.90
7307;DHT22;3694;48.732;9.248;2023-08-08T05:39:34;13.50;99.90
7307;DHT22;3694;48.732;9.248;2023-08-08T05:41:59;13.50;99.90
7307;DHT22;3694;48.732;9.248;2023-08-08T05:44:25;13.50;99.90
7307;DHT22;3694;48.732;9.248;2023-08-08T05:46:52;13.60;99.90
7307;DHT22;3694;48.732;9.248;2023-08-08T05:49:17;13.70;99.90
7307;DHT22;3694;48.732;9.248;2023-08-08T05:51:43;13.80;99.90
7307;DHT22;3694;48.732;9.248;2023-08-08T05:54:08;14.20;99.90
7307;DHT22;3694;48.732;9.248;2023-08-08T05:56:36;14.50;99.90
7307;DHT22;3694;48.732;9.248;2023-08-08T05:59:02;14.90;99.90
7307;DHT22;3694;48.732;9.248;2023-08-08T06:01:28;15.50;99.90
7307;DHT22;3694;48.732;9.248;2023-08-08T06:03:53;16.30;98.70
7307;DHT22;3694;48.732;9.248;2023-08-08T06:06:19;17.00;97.50
7307;DHT22;3694;48.732;9.248;2023-08-08T06:08:44;17.80;95.90
7307;DHT22;3694;48.732;9.248;2023-08-08T06:11:10;18.30;94.80
7307;DHT22;3694;48.732;9.248;2023-08-08T06:13:36;18.50;93.70
7307;DHT22;3694;48.732;9.248;2023-08-08T06:16:02;19.00;93.40
7307;DHT22;3694;48.732;9.248;2023-08-08T06:18:32;19.50;92.20
7307;DHT22;3694;48.732;9.248;2023-08-08T06:20:57;19.90;91.40
7307;DHT22;3694;48.732;9.248;2023-08-08T06:23:23;20.40;90.10
7307;DHT22;3694;48.732;9.248;2023-08-08T06:25:49;20.80;88.80
7307;DHT22;3694;48.732;9.248;2023-08-08T06:28:14;21.20;86.70
7307;DHT22;3694;48.732;9.248;2023-08-08T06:30:40;21.70;85.30
7307;DHT22;3694;48.732;9.248;2023-08-08T06:33:05;21.70;83.40
7307;DHT22;3694;48.732;9.248;2023-08-08T06:35:31;22.00;81.60
7307;DHT22;3694;48.732;9.248;2023-08-08T06:37:56;22.30;81.60
7307;DHT22;3694;48.732;9.248;2023-08-08T06:40:22;22.70;80.10
7307;DHT22;3694;48.732;9.248;2023-08-08T06:42:49;23.10;79.20
7307;DHT22;3694;48.732;9.248;2023-08-08T06:45:14;22.70;77.90
7307;DHT22;3694;48.732;9.248;2023-08-08T06:47:40;22.60;78.10
7307;DHT22;3694;48.732;9.248;2023-08-08T06:50:06;22.50;77.50
7307;DHT22;3694;48.732;9.248;2023-08-08T06:52:32;22.10;77.70
7307;DHT22;3694;48.732;9.248;2023-08-08T06:54:58;21.70;77.10
7307;DHT22;3694;48.732;9.248;2023-08-08T06:57:23;21.30;78.40
7307;DHT22;3694;48.732;9.248;2023-08-08T06:59:49;21.90;78.60
7307;DHT22;3694;48.732;9.248;2023-08-08T07:02:16;22.10;77.70
7307;DHT22;3694;48.732;9.248;2023-08-08T07:04:42;22.50;77.90
7307;DHT22;3694;48.732;9.248;2023-08-08T07:07:08;22.30;78.40
7307;DHT22;3694;48.732;9.248;2023-08-08T07:09:33;22.30;77.20
7307;DHT22;3694;48.732;9.248;2023-08-08T07:12:03;22.30;77.90
7307;DHT22;3694;48.732;9.248;2023-08-08T07:14:32;22.40;79.80
7307;DHT22;3694;48.732;9.248;2023-08-08T07:16:58;22.30;77.60
7307;DHT22;3694;48.732;9.248;2023-08-08T07:19:24;22.50;76.80
7307;DHT22;3694;48.732;9.248;2023-08-08T07:21:49;22.30;76.00
7307;DHT22;3694;48.732;9.248;2023-08-08T07:24:16;22.30;76.30
7307;DHT22;3694;48.732;9.248;2023-08-08T07:26:41;22.20;77.10
7307;DHT22;3694;48.732;9.248;2023-08-08T07:29:07;22.10;75.00
7307;DHT22;3694;48.732;9.248;2023-08-08T07:31:32;22.10;75.70
7307;DHT22;3694;48.732;9.248;2023-08-08T07:33:58;22.10;75.70
7307;DHT22;3694;48.732;9.248;2023-08-08T07:36:24;22.50;76.70
7307;DHT22;3694;48.732;9.248;2023-08-08T07:38:49;22.50;75.60
7307;DHT22;3694;48.732;9.248;2023-08-08T07:41:15;22.30;75.10
7307;DHT22;3694;48.732;9.248;2023-08-08T07:43:41;22.60;75.00
7307;DHT22;3694;48.732;9.248;2023-08-08T07:46:07;22.90;74.00
7307;DHT22;3694;48.732;9.248;2023-08-08T07:48:32;23.20;74.70
7307;DHT22;3694;48.732;9.248;2023-08-08T07:50:58;23.60;72.90
7307;DHT22;3694;48.732;9.248;2023-08-08T07:53:23;24.00;73.10
7307;DHT22;3694;48.732;9.248;2023-08-08T07:55:49;24.20;72.20
7307;DHT22;3694;48.732;9.248;2023-08-08T07:58:14;24.30;70.20
7307;DHT22;3694;48.732;9.248;2023-08-08T08:00:40;24.50;70.00
7307;DHT22;3694;48.732;9.248;2023-08-08T08:03:06;24.30;70.30
7307;DHT22;3694;48.732;9.248;2023-08-08T08:05:32;23.90;70.10
7307;DHT22;3694;48.732;9.248;2023-08-08T08:08:00;23.30;70.50
7307;DHT22;3694;48.732;9.248;2023-08-08T08:10:25;22.90;70.60
7307;DHT22;3694;48.732;9.248;2023-08-08T08:12:51;22.10;69.90
7307;DHT22;3694;48.732;9.248;2023-08-08T08:15:23;21.50;69.90
7307;DHT22;3694;48.732;9.248;2023-08-08T08:17:49;21.10;70.60
7307;DHT22;3694;48.732;9.248;2023-08-08T08:20:14;21.50;71.50
7307;DHT22;3694;48.732;9.248;2023-08-08T08:22:40;21.40;71.70
7307;DHT22;3694;48.732;9.248;2023-08-08T08:25:06;21.80;71.50
7307;DHT22;3694;48.732;9.248;2023-08-08T08:27:34;22.10;71.70
7307;DHT22;3694;48.732;9.248;2023-08-08T08:29:59;22.00;69.70
7307;DHT22;3694;48.732;9.248;2023-08-08T08:32:25;21.90;70.90
7307;DHT22;3694;48.732;9.248;2023-08-08T08:34:50;22.00;71.30
7307;DHT22;3694;48.732;9.248;2023-08-08T08:37:16;22.20;72.10
7307;DHT22;3694;48.732;9.248;2023-08-08T08:39:42;22.80;70.40
7307;DHT22;3694;48.732;9.248;2023-08-08T08:42:08;23.30;69.40
7307;DHT22;3694;48.732;9.248;2023-08-08T08:44:37;23.50;69.80
7307;DHT22;3694;48.732;9.248;2023-08-08T08:47:03;23.30;68.80
7307;DHT22;3694;48.732;9.248;2023-08-08T08:49:32;23.30;69.80
7307;DHT22;3694;48.732;9.248;2023-08-08T08:52:00;23.40;70.20
7307;DHT22;3694;48.732;9.248;2023-08-08T08:54:27;23.20;69.90
7307;DHT22;3694;48.732;9.248;2023-08-08T08:56:55;22.90;68.80
7307;DHT22;3694;48.732;9.248;2023-08-08T08:59:21;22.10;68.40
7307;DHT22;3694;48.732;9.248;2023-08-08T09:01:47;21.50;69.80
7307;DHT22;3694;48.732;9.248;2023-08-08T09:04:15;20.80;69.80
7307;DHT22;3694;48.732;9.248;2023-08-08T09:06:42;20.60;70.50
7307;DHT22;3694;48.732;9.248;2023-08-08T09:09:09;21.00;72.50
7307;DHT22;3694;48.732;9.248;2023-08-08T09:11:34;21.50;71.20
7307;DHT22;3694;48.732;9.248;2023-08-08T09:14:00;22.40;71.30
7307;DHT22;3694;48.732;9.248;2023-08-08T09:16:27;22.90;70.30
7307;DHT22;3694;48.732;9.248;2023-08-08T09:18:53;23.20;68.60
7307;DHT22;3694;48.732;9.248;2023-08-08T09:21:19;23.50;69.70
7307;DHT22;3694;48.732;9.248;2023-08-08T09:23:44;23.70;69.50
7307;DHT22;3694;48.732;9.248;2023-08-08T09:26:10;23.90;67.80
7307;DHT22;3694;48.732;9.248;2023-08-08T09:28:35;23.60;68.10
7307;DHT22;3694;48.732;9.248;2023-08-08T09:31:01;23.60;68.30
7307;DHT22;3694;48.732;9.248;2023-08-08T09:33:30;23.40;68.00
7307;DHT22;3694;48.732;9.248;2023-08-08T09:35:56;23.40;69.80
7307;DHT22;3694;48.732;9.248;2023-08-08T09:38:21;23.60;68.80
7307;DHT22;3694;48.732;9.248;2023-08-08T09:40:47;23.30;68.10
7307;DHT22;3694;48.732;9.248;2023-08-08T09:43:12;22.90;66.20
7307;DHT22;3694;48.732;9.248;2023-08-08T09:45:39;23.30;69.30
7307;DHT22;3694;48.732;9.248;2023-08-08T09:48:07;23.90;69.20
7307;DHT22;3694;48.732;9.248;2023-08-08T09:50:35;23.70;66.80
7307;DHT22;3694;48.732;9.248;2023-08-08T09:53:04;23.50;66.90
7307;DHT22;3694;48.732;9.248;2023-08-08T09:55:31;23.60;66.40
7307;DHT22;3694;48.732;9.248;2023-08-08T09:57:57;23.90;67.40
7307;DHT22;3694;48.732;9.248;2023-08-08T10:00:24;23.30;64.60
7307;DHT22;3694;48.732;9.248;2023-08-08T10:02:53;22.80;66.60
7307;DHT22;3694;48.732;9.248;2023-08-08T10:05:20;22.80;65.60
7307;DHT22;3694;48.732;9.248;2023-08-08T10:07:46;22.90;68.90
7307;DHT22;3694;48.732;9.248;2023-08-08T10:10:12;23.20;66.50
7307;DHT22;3694;48.732;9.248;2023-08-08T10:12:39;23.50;68.30
7307;DHT22;3694;48.732;9.248;2023-08-08T10:15:09;23.90;69.30
7307;DHT22;3694;48.732;9.248;2023-08-08T10:17:36;24.10;66.70
7307;DHT22;3694;48.732;9.248;2023-08-08T10:20:04;23.60;67.00
7307;DHT22;3694;48.732;9.248;2023-08-08T10:22:37;23.50;67.70
7307;DHT22;3694;48.732;9.248;2023-08-08T10:25:04;23.30;66.90
7307;DHT22;3694;48.732;9.248;2023-08-08T10:27:36;23.20;64.20
7307;DHT22;3694;48.732;9.248;2023-08-08T10:30:06;23.30;65.70
7307;DHT22;3694;48.732;9.248;2023-08-08T10:32:45;23.90;64.20
7307;DHT22;3694;48.732;9.248;2023-08-08T10:35:13;23.90;65.70
7307;DHT22;3694;48.732;9.248;2023-08-08T10:37:39;23.40;64.10
7307;DHT22;3694;48.732;9.248;2023-08-08T10:40:06;22.60;64.80
7307;DHT22;3694;48.732;9.248;2023-08-08T10:42:36;22.20;62.90
7307;DHT22;3694;48.732;9.248;2023-08-08T10:45:10;22.00;64.40
7307;DHT22;3694;48.732;9.248;2023-08-08T10:47:37;21.70;64.10
7307;DHT22;3694;48.732;9.248;2023-08-08T10:50:08;21.60;65.40
7307;DHT22;3694;48.732;9.248;2023-08-08T10:55:25;22.40;64.80
7307;DHT22;3694;48.732;9.248;2023-08-08T10:58:07;22.90;62.50
7307;DHT22;3694;48.732;9.248;2023-08-08T11:00:38;23.50;62.80
7307;DHT22;3694;48.732;9.248;2023-08-08T11:03:08;23.40;61.70
7307;DHT22;3694;48.732;9.248;2023-08-08T11:05:35;23.60;61.80
7307;DHT22;3694;48.732;9.248;2023-08-08T11:08:02;23.00;60.70
7307;DHT22;3694;48.732;9.248;2023-08-08T11:10:28;22.90;61.40
7307;DHT22;3694;48.732;9.248;2023-08-08T11:13:01;22.60;60.70
7307;DHT22;3694;48.732;9.248;2023-08-08T11:15:29;22.70;62.00
7307;DHT22;3694;48.732;9.248;2023-08-08T11:17:55;23.40;64.20
7307;DHT22;3694;48.732;9.248;2023-08-08T11:20:22;23.80;64.10
7307;DHT22;3694;48.732;9.248;2023-08-08T11:22:55;23.40;60.60
7307;DHT22;3694;48.732;9.248;2023-08-08T11:25:22;23.80;61.70
7307;DHT22;3694;48.732;9.248;2023-08-08T11:27:54;23.90;59.70
7307;DHT22;3694;48.732;9.248;2023-08-08T11:30:20;23.60;61.00
7307;DHT22;3694;48.732;9.248;2023-08-08T11:32:47;22.90;59.30
7307;DHT22;3694;48.732;9.248;2023-08-08T11:35:24;22.70;60.20
7307;DHT22;3694;48.732;9.248;2023-08-08T11:37:54;22.40;59.30
7307;DHT22;3694;48.732;9.248;2023-08-08T11:40:22;22.80;59.60
7307;DHT22;3694;48.732;9.248;2023-08-08T11:42:48;23.50;61.40
7307;DHT22;3694;48.732;9.248;2023-08-08T11:45:16;24.10;59.20
7307;DHT22;3694;48.732;9.248;2023-08-08T11:47:41;23.90;57.70
7307;DHT22;3694;48.732;9.248;2023-08-08T11:50:09;24.80;60.20
7307;DHT22;3694;48.732;9.248;2023-08-08T11:52:40;24.70;56.20
7307;DHT22;3694;48.732;9.248;2023-08-08T11:55:07;24.40;56.70
7307;DHT22;3694;48.732;9.248;2023-08-08T11:57:41;23.80;56.70
7307;DHT22;3694;48.732;9.248;2023-08-08T12:00:08;23.30;56.50
7307;DHT22;3694;48.732;9.248;2023-08-08T12:02:35;23.80;57.60
7307;DHT22;3694;48.732;9.248;2023-08-08T12:05:08;23.70;57.10
7307;DHT22;3694;48.732;9.248;2023-08-08T12:07:35;23.60;57.30
7307;DHT22;3694;48.732;9.248;2023-08-08T12:10:03;23.70;58.70
7307;DHT22;3694;48.732;9.248;2023-08-08T12:12:29;24.20;57.60
7307;DHT22;3694;48.732;9.248;2023-08-08T12:14:56;24.40;55.90
7307;DHT22;3694;48.732;9.248;2023-08-08T12:17:22;24.00;54.50
7307;DHT22;3694;48.732;9.248;2023-08-08T12:19:48;24.40;56.90
7307;DHT22;3694;48.732;9.248;2023-08-08T12:22:14;24.50;55.80
7307;DHT22;3694;48.732;9.248;2023-08-08T12:24:40;24.10;55.80
7307;DHT22;3694;48.732;9.248;2023-08-08T12:27:05;23.90;55.40
7307;DHT22;3694;48.732;9.248;2023-08-08T12:29:31;23.30;55.70
7307;DHT22;3694;48.732;9.248;2023-08-08T12:31:57;23.20;56.30
7307;DHT22;3694;48.732;9.248;2023-08-08T12:34:22;23.10;56.20
7307;DHT22;3694;48.732;9.248;2023-08-08T12:36:48;23.10;56.60
7307;DHT22;3694;48.732;9.248;2023-08-08T12:39:14;23.20;57.40
7307;DHT22;3694;48.732;9.248;2023-08-08T12:41:39;23.70;56.60
7307;DHT22;3694;48.732;9.248;2023-08-08T12:44:05;23.80;57.40
7307;DHT22;3694;48.732;9.248;2023-08-08T12:46:31;23.40;56.20
7307;DHT22;3694;48.732;9.248;2023-08-08T12:48:56;23.50;59.60
7307;DHT22;3694;48.732;9.248;2023-08-08T12:51:22;23.70;57.40
7307;DHT22;3694;48.732;9.248;2023-08-08T12:53:49;23.60;57.70
7307;DHT22;3694;48.732;9.248;2023-08-08T12:56:15;23.20;57.90
7307;DHT22;3694;48.732;9.248;2023-08-08T12:58:40;23.30;58.40
7307;DHT22;3694;48.732;9.248;2023-08-08T13:01:06;23.50;58.00
7307;DHT22;3694;48.732;9.248;2023-08-08T13:03:33;24.00;58.40
7307;DHT22;3694;48.732;9.248;2023-08-08T13:05:59;24.00;58.10
7307;DHT22;3694;48.732;9.248;2023-08-08T13:08:25;23.70;57.80
7307;DHT22;3694;48.732;9.248;2023-08-08T13:10:51;23.60;58.40
7307;DHT22;3694;48.732;9.248;2023-08-08T13:13:16;23.60;60.40
7307;DHT22;3694;48.732;9.248;2023-08-08T13:15:42;23.30;58.80
7307;DHT22;3694;48.732;9.248;2023-08-08T13:18:07;23.20;58.90
7307;DHT22;3694;48.732;9.248;2023-08-08T13:20:33;23.00;58.80
7307;DHT22;3694;48.732;9.248;2023-08-08T13:22:58;22.70;58.50
7307;DHT22;3694;48.732;9.248;2023-08-08T13:25:24;22.30;58.00
7307;DHT22;3694;48.732;9.248;2023-08-08T13:27:50;22.10;59.40
7307;DHT22;3694;48.732;9.248;2023-08-08T13:30:15;21.90;59.30
7307;DHT22;3694;48.732;9.248;2023-08-08T13:32:42;21.50;59.50
7307;DHT22;3694;48.732;9.248;2023-08-08T13:35:07;21.20;60.60
7307;DHT22;3694;48.732;9.248;2023-08-08T13:37:33;20.80;60.00
7307;DHT22;3694;48.732;9.248;2023-08-08T13:39:59;20.80;60.70
7307;DHT22;3694;48.732;9.248;2023-08-08T13:42:24;21.00;61.50
7307;DHT22;3694;48.732;9.248;2023-08-08T13:44:50;21.40;61.70
7307;DHT22;3694;48.732;9.248;2023-08-08T13:47:15;22.40;63.90
7307;DHT22;3694;48.732;9.248;2023-08-08T13:49:41;23.10;61.50
7307;DHT22;3694;48.732;9.248;2023-08-08T13:52:08;23.70;60.50
7307;DHT22;3694;48.732;9.248;2023-08-08T13:54:33;23.70;60.50
7307;DHT22;3694;48.732;9.248;2023-08-08T13:56:59;23.70;59.30
7307;DHT22;3694;48.732;9.248;2023-08-08T13:59:24;23.50;58.60
7307;DHT22;3694;48.732;9.248;2023-08-08T14:01:50;23.40;60.30
7307;DHT22;3694;48.732;9.248;2023-08-08T14:04:16;23.60;58.40
7307;DHT22;3694;48.732;9.248;2023-08-08T14:06:41;23.90;60.00
7307;DHT22;3694;48.732;9.248;2023-08-08T14:09:07;24.00;60.20
7307;DHT22;3694;48.732;9.248;2023-08-08T14:11:32;24.00;59.60
7307;DHT22;3694;48.732;9.248;2023-08-08T14:13:58;24.20;61.40
7307;DHT22;3694;48.732;9.248;2023-08-08T14:16:24;24.80;59.70
7307;DHT22;3694;48.732;9.248;2023-08-08T14:18:49;24.90;59.70
7307;DHT22;3694;48.732;9.248;2023-08-08T14:21:15;24.90;60.00
7307;DHT22;3694;48.732;9.248;2023-08-08T14:23:40;24.80;59.00
7307;DHT22;3694;48.732;9.248;2023-08-08T14:26:06;24.70;59.10
7307;DHT22;3694;48.732;9.248;2023-08-08T14:28:31;24.20;59.10
7307;DHT22;3694;48.732;9.248;2023-08-08T14:30:57;23.70;59.90
7307;DHT22;3694;48.732;9.248;2023-08-08T14:33:23;23.00;60.00
7307;DHT22;3694;48.732;9.248;2023-08-08T14:35:49;22.70;60.70
7307;DHT22;3694;48.732;9.248;2023-08-08T14:38:15;22.30;59.90
7307;DHT22;3694;48.732;9.248;2023-08-08T14:40:41;22.00;60.50
7307;DHT22;3694;48.732;9.248;2023-08-08T14:43:06;21.80;60.30
7307;DHT22;3694;48.732;9.248;2023-08-08T14:45:36;21.40;59.90
7307;DHT22;3694;48.732;9.248;2023-08-08T14:48:04;21.20;59.50
7307;DHT22;3694;48.732;9.248;2023-08-08T14:50:29;20.80;60.50
7307;DHT22;3694;48.732;9.248;2023-08-08T14:52:55;20.70;60.70
7307;DHT22;3694;48.732;9.248;2023-08-08T14:55:20;20.60;61.10
7307;DHT22;3694;48.732;9.248;2023-08-08T14:57:46;20.60;61.00
7307;DHT22;3694;48.732;9.248;2023-08-08T15:00:12;20.80;61.20
7307;DHT22;3694;48.732;9.248;2023-08-08T15:02:38;20.60;61.80
7307;DHT22;3694;48.732;9.248;2023-08-08T15:05:04;20.70;61.10
7307;DHT22;3694;48.732;9.248;2023-08-08T15:07:29;20.80;61.30
7307;DHT22;3694;48.732;9.248;2023-08-08T15:09:55;20.80;62.10
7307;DHT22;3694;48.732;9.248;2023-08-08T15:12:20;21.00;62.20
7307;DHT22;3694;48.732;9.248;2023-08-08T15:14:46;21.10;62.30
7307;DHT22;3694;48.732;9.248;2023-08-08T15:17:13;21.20;62.00
7307;DHT22;3694;48.732;9.248;2023-08-08T15:19:39;21.30;62.10
7307;DHT22;3694;48.732;9.248;2023-08-08T15:22:05;21.40;62.10
7307;DHT22;3694;48.732;9.248;2023-08-08T15:24:31;21.50;62.20
7307;DHT22;3694;48.732;9.248;2023-08-08T15:26:58;21.10;62.00
7307;DHT22;3694;48.732;9.248;2023-08-08T15:29:23;21.00;62.00
7307;DHT22;3694;48.732;9.248;2023-08-08T15:31:49;21.10;62.20
7307;DHT22;3694;48.732;9.248;2023-08-08T15:34:14;21.10;62.00
7307;DHT22;3694;48.732;9.248;2023-08-08T15:36:40;21.10;62.90
7307;DHT22;3694;48.732;9.248;2023-08-08T15:39:06;21.50;62.10
7307;DHT22;3694;48.732;9.248;2023-08-08T15:41:31;22.00;62.30
7307;DHT22;3694;48.732;9.248;2023-08-08T15:43:57;22.30;61.00
7307;DHT22;3694;48.732;9.248;2023-08-08T15:46:22;21.90;61.30
7307;DHT22;3694;48.732;9.248;2023-08-08T15:48:48;21.50;61.20
7307;DHT22;3694;48.732;9.248;2023-08-08T15:51:13;21.20;62.00
7307;DHT22;3694;48.732;9.248;2023-08-08T15:53:39;21.20;62.60
7307;DHT22;3694;48.732;9.248;2023-08-08T15:56:05;21.00;62.80
7307;DHT22;3694;48.732;9.248;2023-08-08T15:58:32;21.00;63.10
7307;DHT22;3694;48.732;9.248;2023-08-08T16:00:58;20.80;63.30
7307;DHT22;3694;48.732;9.248;2023-08-08T16:03:24;20.80;63.50
7307;DHT22;3694;48.732;9.248;2023-08-08T16:05:50;20.40;63.10